sensor_id;sensor_type;location;lat;lon;timestamp;pressure;altitude;pressure_sealevel;temperature;humidity
37832;BME280;23671;38.090;-122.570;2023-04-24T00:01:39;101177.34;;;22.38;43.89
37832;BME280;23671;38.090;-122.570;2023-04-24T00:04:06;101188.66;;;22.33;44.14
37832;BME280;23671;38.090;-122.570;2023-04-24T00:06:37;101183.47;;;22.17;44.27
37832;BME280;23671;38.090;-122.570;2023-04-24T00:09:05;101177.44;;;22.15;44.57
37832;BME280;23671;38.090;-122.570;2023-04-24T00:11:32;101179.38;;;22.07;44.10
37832;BME280;23671;38.090;-122.570;2023-04-24T00:13:59;101177.03;;;21.89;44.53
37832;BME280;23671;38.090;-122.570;2023-04-24T00:16:26;101169.38;;;21.78;44.83
37832;BME280;23671;38.090;-122.570;2023-04-24T00:18:53;101172.22;;;21.62;44.81
37832;BME280;23671;38.090;-122.570;2023-04-24T00:21:20;101166.91;;;21.54;45.29
37832;BME280;23671;38.090;-122.570;2023-04-24T00:23:49;101173.75;;;21.42;45.45
37832;BME280;23671;38.090;-122.570;2023-04-24T00:26:16;101182.34;;;21.37;45.51
37832;BME280;23671;38.090;-122.570;2023-04-24T00:28:44;101179.22;;;21.26;45.87
37832;BME280;23671;38.090;-122.570;2023-04-24T00:31:11;101181.63;;;21.21;45.84
37832;BME280;23671;38.090;-122.570;2023-04-24T00:33:41;101177.16;;;21.13;45.82
37832;BME280;23671;38.090;-122.570;2023-04-24T00:36:08;101167.31;;;20.98;46.28
37832;BME280;23671;38.090;-122.570;2023-04-24T00:38:35;101167.84;;;20.93;46.34
37832;BME280;23671;38.090;-122.570;2023-04-24T00:41:02;101178.81;;;20.83;46.42
37832;BME280;23671;38.090;-122.570;2023-04-24T00:43:29;101176.50;;;20.80;46.59
37832;BME280;23671;38.090;-122.570;2023-04-24T00:45:56;101181.19;;;20.78;47.00
37832;BME280;23671;38.090;-122.570;2023-04-24T00:48:24;101185.59;;;20.63;46.38
37832;BME280;23671;38.090;-122.570;2023-04-24T00:50:52;101182.13;;;20.55;47.00
37832;BME280;23671;38.090;-122.570;2023-04-24T00:53:19;101175.78;;;20.48;47.16
37832;BME280;23671;38.090;-122.570;2023-04-24T00:55:47;101178.88;;;20.29;47.32
37832;BME280;23671;38.090;-122.570;2023-04-24T00:58:14;101172.81;;;20.35;47.03
37832;BME280;23671;38.090;-122.570;2023-04-24T01:00:41;101172.69;;;20.28;47.27
37832;BME280;23671;38.090;-122.570;2023-04-24T01:03:09;101163.31;;;20.16;47.42
37832;BME280;23671;38.090;-122.570;2023-04-24T01:05:37;101166.66;;;20.10;47.73
37832;BME280;23671;38.090;-122.570;2023-04-24T01:08:04;101172.75;;;20.51;46.90
37832;BME280;23671;38.090;-122.570;2023-04-24T01:10:33;101180.34;;;20.78;46.20
37832;BME280;23671;38.090;-122.570;2023-04-24T01:13:01;101174.16;;;21.00;45.24
37832;BME280;23671;38.090;-122.570;2023-04-24T01:15:28;101162.69;;;21.14;44.33
37832;BME280;23671;38.090;-122.570;2023-04-24T01:17:55;101169.81;;;21.30;44.63
37832;BME280;23671;38.090;-122.570;2023-04-24T01:20:24;101174.75;;;21.41;44.15
37832;BME280;23671;38.090;-122.570;2023-04-24T01:22:54;101167.66;;;21.48;43.65
37832;BME280;23671;38.090;-122.570;2023-04-24T01:25:23;101163.22;;;21.55;43.69
37832;BME280;23671;38.090;-122.570;2023-04-24T01:27:51;101172.59;;;21.59;44.21
37832;BME280;23671;38.090;-122.570;2023-04-24T01:30:19;101171.41;;;21.61;43.88
37832;BME280;23671;38.090;-122.570;2023-04-24T01:32:46;101173.91;;;21.63;44.09
37832;BME280;23671;38.090;-122.570;2023-04-24T01:35:13;101172.88;;;21.64;43.71
37832;BME280;23671;38.090;-122.570;2023-04-24T01:37:40;101164.63;;;21.65;43.71
37832;BME280;23671;38.090;-122.570;2023-04-24T01:40:08;101164.47;;;21.67;43.52
37832;BME280;23671;38.090;-122.570;2023-04-24T01:42:36;101165.47;;;21.66;43.50
37832;BME280;23671;38.090;-122.570;2023-04-24T01:45:04;101163.81;;;21.65;42.83
37832;BME280;23671;38.090;-122.570;2023-04-24T01:47:32;101156.41;;;21.67;43.58
37832;BME280;23671;38.090;-122.570;2023-04-24T01:50:00;101156.56;;;21.65;42.90
37832;BME280;23671;38.090;-122.570;2023-04-24T01:52:27;101166.31;;;21.66;42.29
37832;BME280;23671;38.090;-122.570;2023-04-24T01:54:55;101164.81;;;21.64;42.07
37832;BME280;23671;38.090;-122.570;2023-04-24T01:57:22;101159.63;;;21.62;41.76
37832;BME280;23671;38.090;-122.570;2023-04-24T01:59:50;101154.63;;;21.59;41.19
37832;BME280;23671;38.090;-122.570;2023-04-24T02:02:17;101149.78;;;21.55;41.31
37832;BME280;23671;38.090;-122.570;2023-04-24T02:04:44;101164.78;;;21.49;41.50
37832;BME280;23671;38.090;-122.570;2023-04-24T02:07:11;101154.22;;;21.48;40.98
37832;BME280;23671;38.090;-122.570;2023-04-24T02:09:39;101170.88;;;21.43;40.66
37832;BME280;23671;38.090;-122.570;2023-04-24T02:12:06;101151.59;;;21.40;40.81
37832;BME280;23671;38.090;-122.570;2023-04-24T02:14:33;101159.06;;;21.30;42.13
37832;BME280;23671;38.090;-122.570;2023-04-24T02:17:00;101157.56;;;21.27;40.43
37832;BME280;23671;38.090;-122.570;2023-04-24T02:19:27;101149.75;;;21.18;40.22
37832;BME280;23671;38.090;-122.570;2023-04-24T02:21:54;101149.47;;;21.13;40.30
37832;BME280;23671;38.090;-122.570;2023-04-24T02:24:21;101152.19;;;21.05;40.30
37832;BME280;23671;38.090;-122.570;2023-04-24T02:26:48;101142.47;;;21.04;40.98
37832;BME280;23671;38.090;-122.570;2023-04-24T02:29:15;101150.00;;;21.00;40.16
37832;BME280;23671;38.090;-122.570;2023-04-24T02:31:42;101153.91;;;20.98;40.21
37832;BME280;23671;38.090;-122.570;2023-04-24T02:34:09;101153.91;;;20.98;40.66
37832;BME280;23671;38.090;-122.570;2023-04-24T02:36:36;101154.59;;;20.92;39.98
37832;BME280;23671;38.090;-122.570;2023-04-24T02:39:03;101144.19;;;20.89;39.81
37832;BME280;23671;38.090;-122.570;2023-04-24T02:41:31;101138.72;;;20.82;39.82
37832;BME280;23671;38.090;-122.570;2023-04-24T02:43:59;101155.16;;;20.79;40.11
37832;BME280;23671;38.090;-122.570;2023-04-24T02:46:26;101162.56;;;20.77;40.91
37832;BME280;23671;38.090;-122.570;2023-04-24T02:48:54;101158.72;;;20.71;39.98
37832;BME280;23671;38.090;-122.570;2023-04-24T02:51:21;101159.09;;;20.68;41.81
37832;BME280;23671;38.090;-122.570;2023-04-24T02:53:48;101156.09;;;20.63;39.63
37832;BME280;23671;38.090;-122.570;2023-04-24T02:56:15;101164.88;;;20.57;40.01
37832;BME280;23671;38.090;-122.570;2023-04-24T02:58:42;101173.25;;;20.54;40.76
37832;BME280;23671;38.090;-122.570;2023-04-24T03:01:10;101175.63;;;20.49;41.18
37832;BME280;23671;38.090;-122.570;2023-04-24T03:03:38;101170.13;;;20.43;40.04
37832;BME280;23671;38.090;-122.570;2023-04-24T03:06:06;101181.34;;;20.38;40.11
37832;BME280;23671;38.090;-122.570;2023-04-24T03:08:34;101197.13;;;20.33;42.02
37832;BME280;23671;38.090;-122.570;2023-04-24T03:11:01;101200.31;;;20.29;41.51
37832;BME280;23671;38.090;-122.570;2023-04-24T03:13:28;101204.22;;;20.26;41.12
37832;BME280;23671;38.090;-122.570;2023-04-24T03:15:55;101206.72;;;20.20;41.94
37832;BME280;23671;38.090;-122.570;2023-04-24T03:18:22;101214.44;;;20.15;40.76
37832;BME280;23671;38.090;-122.570;2023-04-24T03:20:50;101208.91;;;20.08;41.90
37832;BME280;23671;38.090;-122.570;2023-04-24T03:23:17;101214.28;;;20.00;40.52
37832;BME280;23671;38.090;-122.570;2023-04-24T03:25:44;101212.44;;;19.92;40.62
37832;BME280;23671;38.090;-122.570;2023-04-24T03:28:11;101202.09;;;19.81;40.59
37832;BME280;23671;38.090;-122.570;2023-04-24T03:30:38;101214.50;;;19.74;40.59
37832;BME280;23671;38.090;-122.570;2023-04-24T03:33:05;101216.50;;;19.64;40.68
37832;BME280;23671;38.090;-122.570;2023-04-24T03:35:33;101220.81;;;19.57;40.85
37832;BME280;23671;38.090;-122.570;2023-04-24T03:38:00;101228.03;;;19.49;40.97
37832;BME280;23671;38.090;-122.570;2023-04-24T03:40:27;101232.22;;;19.43;40.96
37832;BME280;23671;38.090;-122.570;2023-04-24T03:42:55;101237.38;;;19.37;40.95
37832;BME280;23671;38.090;-122.570;2023-04-24T03:45:22;101240.69;;;19.31;41.18
37832;BME280;23671;38.090;-122.570;2023-04-24T03:47:50;101239.19;;;19.20;41.17
37832;BME280;23671;38.090;-122.570;2023-04-24T03:50:17;101245.03;;;19.16;41.40
37832;BME280;23671;38.090;-122.570;2023-04-24T03:52:44;101246.34;;;19.12;41.52
37832;BME280;23671;38.090;-122.570;2023-04-24T03:55:11;101248.84;;;19.05;41.52
37832;BME280;23671;38.090;-122.570;2023-04-24T03:57:41;101260.03;;;19.00;41.63
37832;BME280;23671;38.090;-122.570;2023-04-24T04:00:08;101257.03;;;18.95;41.59
37832;BME280;23671;38.090;-122.570;2023-04-24T04:02:36;101261.66;;;18.85;41.63
37832;BME280;23671;38.090;-122.570;2023-04-24T04:05:03;101255.81;;;18.82;41.63
37832;BME280;23671;38.090;-122.570;2023-04-24T04:07:30;101267.44;;;18.73;42.12
37832;BME280;23671;38.090;-122.570;2023-04-24T04:09:57;101283.31;;;18.66;41.82
37832;BME280;23671;38.090;-122.570;2023-04-24T04:12:24;101300.50;;;18.64;42.05
37832;BME280;23671;38.090;-122.570;2023-04-24T04:14:51;101308.31;;;18.57;42.09
37832;BME280;23671;38.090;-122.570;2023-04-24T04:17:18;101307.97;;;18.52;42.18
37832;BME280;23671;38.090;-122.570;2023-04-24T04:19:45;101309.13;;;18.50;42.16
37832;BME280;23671;38.090;-122.570;2023-04-24T04:22:12;101311.59;;;18.43;42.32
37832;BME280;23671;38.090;-122.570;2023-04-24T04:24:39;101321.88;;;18.38;42.30
37832;BME280;23671;38.090;-122.570;2023-04-24T04:27:07;101320.00;;;18.31;42.43
37832;BME280;23671;38.090;-122.570;2023-04-24T04:29:34;101329.63;;;18.24;42.63
37832;BME280;23671;38.090;-122.570;2023-04-24T04:32:02;101321.22;;;18.18;42.46
37832;BME280;23671;38.090;-122.570;2023-04-24T04:34:29;101321.03;;;18.12;42.71
37832;BME280;23671;38.090;-122.570;2023-04-24T04:36:58;101326.81;;;18.07;42.93
37832;BME280;23671;38.090;-122.570;2023-04-24T04:39:28;101321.28;;;18.01;42.91
37832;BME280;23671;38.090;-122.570;2023-04-24T04:41:57;101318.06;;;17.97;43.00
37832;BME280;23671;38.090;-122.570;2023-04-24T04:44:24;101330.72;;;17.95;42.91
37832;BME280;23671;38.090;-122.570;2023-04-24T04:46:52;101332.19;;;17.90;43.12
37832;BME280;23671;38.090;-122.570;2023-04-24T04:49:20;101331.97;;;17.83;43.04
37832;BME280;23671;38.090;-122.570;2023-04-24T04:51:48;101337.75;;;17.79;42.96
37832;BME280;23671;38.090;-122.570;2023-04-24T04:54:15;101328.09;;;17.78;43.11
37832;BME280;23671;38.090;-122.570;2023-04-24T04:56:42;101340.75;;;17.76;43.06
37832;BME280;23671;38.090;-122.570;2023-04-24T04:59:09;101333.19;;;17.71;43.14
37832;BME280;23671;38.090;-122.570;2023-04-24T05:01:37;101339.66;;;17.69;43.20
37832;BME280;23671;38.090;-122.570;2023-04-24T05:04:04;101332.13;;;17.64;43.21
37832;BME280;23671;38.090;-122.570;2023-04-24T05:06:31;101333.25;;;17.62;43.53
37832;BME280;23671;38.090;-122.570;2023-04-24T05:08:58;101324.56;;;17.60;43.36
37832;BME280;23671;38.090;-122.570;2023-04-24T05:11:25;101326.00;;;17.54;43.44
37832;BME280;23671;38.090;-122.570;2023-04-24T05:13:52;101315.75;;;17.50;43.26
37832;BME280;23671;38.090;-122.570;2023-04-24T05:16:19;101327.44;;;17.49;43.32
37832;BME280;23671;38.090;-122.570;2023-04-24T05:18:46;101321.84;;;17.42;43.10
37832;BME280;23671;38.090;-122.570;2023-04-24T05:21:13;101322.44;;;17.36;43.43
37832;BME280;23671;38.090;-122.570;2023-04-24T05:23:40;101317.56;;;17.32;43.60
37832;BME280;23671;38.090;-122.570;2023-04-24T05:26:08;101310.97;;;17.26;43.46
37832;BME280;23671;38.090;-122.570;2023-04-24T05:28:35;101309.47;;;17.23;43.60
37832;BME280;23671;38.090;-122.570;2023-04-24T05:31:03;101311.59;;;17.20;43.79
37832;BME280;23671;38.090;-122.570;2023-04-24T05:33:30;101312.56;;;17.19;44.03
37832;BME280;23671;38.090;-122.570;2023-04-24T05:35:58;101318.34;;;17.14;44.00
37832;BME280;23671;38.090;-122.570;2023-04-24T05:38:25;101311.34;;;17.13;43.58
37832;BME280;23671;38.090;-122.570;2023-04-24T05:40:52;101313.31;;;17.11;43.97
37832;BME280;23671;38.090;-122.570;2023-04-24T05:43:19;101309.94;;;17.09;43.69
37832;BME280;23671;38.090;-122.570;2023-04-24T05:45:46;101310.09;;;17.08;43.75
37832;BME280;23671;38.090;-122.570;2023-04-24T05:48:13;101311.06;;;17.07;43.62
37832;BME280;23671;38.090;-122.570;2023-04-24T05:50:40;101309.56;;;17.04;43.74
37832;BME280;23671;38.090;-122.570;2023-04-24T05:53:07;101316.47;;;16.97;44.20
37832;BME280;23671;38.090;-122.570;2023-04-24T05:55:34;101325.47;;;16.96;43.97
37832;BME280;23671;38.090;-122.570;2023-04-24T05:58:02;101319.59;;;16.93;44.27
37832;BME280;23671;38.090;-122.570;2023-04-24T06:00:29;101320.19;;;16.87;44.29
37832;BME280;23671;38.090;-122.570;2023-04-24T06:02:56;101312.19;;;16.87;44.18
37832;BME280;23671;38.090;-122.570;2023-04-24T06:05:23;101317.63;;;16.85;43.91
37832;BME280;23671;38.090;-122.570;2023-04-24T06:07:51;101328.44;;;16.84;44.05
37832;BME280;23671;38.090;-122.570;2023-04-24T06:10:18;101332.56;;;16.78;44.27
37832;BME280;23671;38.090;-122.570;2023-04-24T06:12:45;101333.81;;;16.74;44.17
37832;BME280;23671;38.090;-122.570;2023-04-24T06:15:12;101338.78;;;16.69;44.38
37832;BME280;23671;38.090;-122.570;2023-04-24T06:17:39;101332.75;;;16.67;44.37
37832;BME280;23671;38.090;-122.570;2023-04-24T06:20:07;101342.41;;;16.68;44.12
37832;BME280;23671;38.090;-122.570;2023-04-24T06:22:34;101337.94;;;16.59;44.14
37832;BME280;23671;38.090;-122.570;2023-04-24T06:25:01;101336.28;;;16.58;44.38
37832;BME280;23671;38.090;-122.570;2023-04-24T06:27:29;101335.72;;;16.55;44.38
37832;BME280;23671;38.090;-122.570;2023-04-24T06:29:56;101332.50;;;16.51;44.42
37832;BME280;23671;38.090;-122.570;2023-04-24T06:32:23;101337.97;;;16.50;44.08
37832;BME280;23671;38.090;-122.570;2023-04-24T06:34:53;101320.16;;;16.41;44.34
37832;BME280;23671;38.090;-122.570;2023-04-24T06:37:23;101325.91;;;16.36;44.60
37832;BME280;23671;38.090;-122.570;2023-04-24T06:39:51;101323.94;;;16.38;44.19
37832;BME280;23671;38.090;-122.570;2023-04-24T06:42:18;101321.84;;;16.32;44.40
37832;BME280;23671;38.090;-122.570;2023-04-24T06:44:46;101316.50;;;16.32;44.49
37832;BME280;23671;38.090;-122.570;2023-04-24T06:47:13;101320.44;;;16.28;44.57
37832;BME280;23671;38.090;-122.570;2023-04-24T06:49:41;101322.72;;;16.23;44.60
37832;BME280;23671;38.090;-122.570;2023-04-24T06:52:08;101325.66;;;16.20;44.44
37832;BME280;23671;38.090;-122.570;2023-04-24T06:54:36;101324.94;;;16.18;44.72
37832;BME280;23671;38.090;-122.570;2023-04-24T06:57:03;101331.00;;;16.10;44.45
37832;BME280;23671;38.090;-122.570;2023-04-24T06:59:30;101333.66;;;16.10;44.38
37832;BME280;23671;38.090;-122.570;2023-04-24T07:01:57;101332.41;;;16.05;44.68
37832;BME280;23671;38.090;-122.570;2023-04-24T07:04:24;101337.72;;;16.05;44.77
37832;BME280;23671;38.090;-122.570;2023-04-24T07:06:51;101340.00;;;16.00;44.84
37832;BME280;23671;38.090;-122.570;2023-04-24T07:09:21;101348.94;;;15.99;44.69
37832;BME280;23671;38.090;-122.570;2023-04-24T07:11:48;101346.44;;;15.97;44.42
37832;BME280;23671;38.090;-122.570;2023-04-24T07:14:15;101346.03;;;15.92;44.46
37832;BME280;23671;38.090;-122.570;2023-04-24T07:16:43;101338.19;;;15.91;44.62
37832;BME280;23671;38.090;-122.570;2023-04-24T07:19:10;101337.75;;;15.86;44.54
37832;BME280;23671;38.090;-122.570;2023-04-24T07:21:37;101337.75;;;15.86;44.55
37832;BME280;23671;38.090;-122.570;2023-04-24T07:24:04;101345.03;;;15.84;44.42
37832;BME280;23671;38.090;-122.570;2023-04-24T07:26:31;101355.97;;;15.81;44.56
37832;BME280;23671;38.090;-122.570;2023-04-24T07:28:58;101348.94;;;15.80;44.63
37832;BME280;23671;38.090;-122.570;2023-04-24T07:31:26;101341.41;;;15.75;44.51
37832;BME280;23671;38.090;-122.570;2023-04-24T07:33:53;101348.38;;;15.76;44.62
37832;BME280;23671;38.090;-122.570;2023-04-24T07:36:20;101345.31;;;15.71;44.47
37832;BME280;23671;38.090;-122.570;2023-04-24T07:38:47;101354.41;;;15.69;44.64
37832;BME280;23671;38.090;-122.570;2023-04-24T07:41:15;101344.88;;;15.66;44.42
37832;BME280;23671;38.090;-122.570;2023-04-24T07:43:42;101342.50;;;15.63;44.67
37832;BME280;23671;38.090;-122.570;2023-04-24T07:46:09;101333.09;;;15.59;44.50
37832;BME280;23671;38.090;-122.570;2023-04-24T07:48:37;101334.34;;;15.55;44.55
37832;BME280;23671;38.090;-122.570;2023-04-24T07:51:04;101348.50;;;15.56;44.47
37832;BME280;23671;38.090;-122.570;2023-04-24T07:53:31;101334.75;;;15.51;44.57
37832;BME280;23671;38.090;-122.570;2023-04-24T07:55:58;101345.00;;;15.45;44.64
37832;BME280;23671;38.090;-122.570;2023-04-24T07:58:25;101345.50;;;15.39;44.62
37832;BME280;23671;38.090;-122.570;2023-04-24T08:00:52;101350.44;;;15.44;44.65
37832;BME280;23671;38.090;-122.570;2023-04-24T08:03:19;101343.69;;;15.40;44.70
37832;BME280;23671;38.090;-122.570;2023-04-24T08:05:47;101345.78;;;15.36;44.61
37832;BME280;23671;38.090;-122.570;2023-04-24T08:08:14;101338.47;;;15.29;44.78
37832;BME280;23671;38.090;-122.570;2023-04-24T08:10:41;101338.59;;;15.27;44.70
37832;BME280;23671;38.090;-122.570;2023-04-24T08:13:08;101332.00;;;15.22;44.74
37832;BME280;23671;38.090;-122.570;2023-04-24T08:15:35;101342.66;;;15.22;44.70
37832;BME280;23671;38.090;-122.570;2023-04-24T08:18:02;101335.38;;;15.24;44.43
37832;BME280;23671;38.090;-122.570;2023-04-24T08:20:29;101330.47;;;15.19;44.61
37832;BME280;23671;38.090;-122.570;2023-04-24T08:22:57;101346.13;;;15.13;44.81
37832;BME280;23671;38.090;-122.570;2023-04-24T08:25:24;101341.78;;;15.12;44.79
37832;BME280;23671;38.090;-122.570;2023-04-24T08:27:51;101342.91;;;15.09;44.59
37832;BME280;23671;38.090;-122.570;2023-04-24T08:30:18;101350.19;;;15.07;44.71
37832;BME280;23671;38.090;-122.570;2023-04-24T08:32:45;101340.91;;;15.02;44.75
37832;BME280;23671;38.090;-122.570;2023-04-24T08:35:12;101350.72;;;15.01;44.43
37832;BME280;23671;38.090;-122.570;2023-04-24T08:37:40;101338.78;;;14.96;44.76
37832;BME280;23671;38.090;-122.570;2023-04-24T08:40:15;101350.66;;;14.92;44.78
37832;BME280;23671;38.090;-122.570;2023-04-24T08:42:45;101343.78;;;14.89;44.75
37832;BME280;23671;38.090;-122.570;2023-04-24T08:45:13;101339.56;;;14.87;44.59
37832;BME280;23671;38.090;-122.570;2023-04-24T08:47:41;101355.66;;;14.85;44.59
37832;BME280;23671;38.090;-122.570;2023-04-24T08:50:10;101348.81;;;14.83;44.75
37832;BME280;23671;38.090;-122.570;2023-04-24T08:52:37;101344.75;;;14.79;44.64
37832;BME280;23671;38.090;-122.570;2023-04-24T08:55:04;101340.53;;;14.76;44.72
37832;BME280;23671;38.090;-122.570;2023-04-24T08:57:33;101341.38;;;14.77;44.55
37832;BME280;23671;38.090;-122.570;2023-04-24T09:00:02;101336.72;;;14.69;44.73
37832;BME280;23671;38.090;-122.570;2023-04-24T09:02:30;101337.09;;;14.65;45.01
37832;BME280;23671;38.090;-122.570;2023-04-24T09:04:58;101335.31;;;14.65;44.71
37832;BME280;23671;38.090;-122.570;2023-04-24T09:07:27;101337.50;;;14.60;44.65
37832;BME280;23671;38.090;-122.570;2023-04-24T09:09:57;101327.84;;;14.59;44.68
37832;BME280;23671;38.090;-122.570;2023-04-24T09:12:25;101319.31;;;14.55;45.01
37832;BME280;23671;38.090;-122.570;2023-04-24T09:14:53;101328.38;;;14.53;45.03
37832;BME280;23671;38.090;-122.570;2023-04-24T09:17:21;101327.38;;;14.54;44.92
37832;BME280;23671;38.090;-122.570;2023-04-24T09:19:49;101311.00;;;14.49;45.01
37832;BME280;23671;38.090;-122.570;2023-04-24T09:22:16;101313.94;;;14.46;45.02
37832;BME280;23671;38.090;-122.570;2023-04-24T09:24:44;101311.28;;;14.46;44.98
37832;BME280;23671;38.090;-122.570;2023-04-24T09:27:12;101323.25;;;14.40;44.77
37832;BME280;23671;38.090;-122.570;2023-04-24T09:29:54;101319.06;;;14.38;44.80
37832;BME280;23671;38.090;-122.570;2023-04-24T09:32:23;101333.06;;;14.40;44.72
37832;BME280;23671;38.090;-122.570;2023-04-24T09:35:12;101327.03;;;14.38;44.86
37832;BME280;23671;38.090;-122.570;2023-04-24T09:37:45;101329.34;;;14.31;44.79
37832;BME280;23671;38.090;-122.570;2023-04-24T09:40:18;101327.41;;;14.33;44.84
37832;BME280;23671;38.090;-122.570;2023-04-24T09:42:54;101323.81;;;14.34;44.74
37832;BME280;23671;38.090;-122.570;2023-04-24T09:45:22;101316.06;;;14.31;45.20
37832;BME280;23671;38.090;-122.570;2023-04-24T09:47:53;101312.09;;;14.26;44.84
37832;BME280;23671;38.090;-122.570;2023-04-24T09:50:20;101305.72;;;14.28;45.08
37832;BME280;23671;38.090;-122.570;2023-04-24T09:53:01;101312.38;;;14.23;44.75
37832;BME280;23671;38.090;-122.570;2023-04-24T09:55:29;101325.03;;;14.19;44.71
37832;BME280;23671;38.090;-122.570;2023-04-24T09:58:00;101323.25;;;14.20;45.17
37832;BME280;23671;38.090;-122.570;2023-04-24T10:00:30;101321.00;;;14.15;45.01
37832;BME280;23671;38.090;-122.570;2023-04-24T10:02:59;101325.69;;;14.12;45.03
37832;BME280;23671;38.090;-122.570;2023-04-24T10:05:36;101323.16;;;14.10;45.19
37832;BME280;23671;38.090;-122.570;2023-04-24T10:08:05;101342.63;;;14.11;44.97
37832;BME280;23671;38.090;-122.570;2023-04-24T10:10:33;101336.72;;;14.07;45.06
37832;BME280;23671;38.090;-122.570;2023-04-24T10:13:01;101336.13;;;14.04;45.27
37832;BME280;23671;38.090;-122.570;2023-04-24T10:15:29;101330.13;;;14.02;45.08
37832;BME280;23671;38.090;-122.570;2023-04-24T10:17:59;101332.75;;;14.02;45.24
37832;BME280;23671;38.090;-122.570;2023-04-24T10:20:28;101339.88;;;14.01;44.62
37832;BME280;23671;38.090;-122.570;2023-04-24T10:22:59;101332.88;;;14.00;45.04
37832;BME280;23671;38.090;-122.570;2023-04-24T10:25:31;101333.00;;;13.99;45.20
37832;BME280;23671;38.090;-122.570;2023-04-24T10:27:59;101330.16;;;13.91;44.95
37832;BME280;23671;38.090;-122.570;2023-04-24T10:30:29;101339.94;;;13.90;45.37
37832;BME280;23671;38.090;-122.570;2023-04-24T10:32:56;101341.47;;;13.93;45.23
37832;BME280;23671;38.090;-122.570;2023-04-24T10:35:23;101335.13;;;13.84;45.03
37832;BME280;23671;38.090;-122.570;2023-04-24T10:38:00;101326.47;;;13.82;45.33
37832;BME280;23671;38.090;-122.570;2023-04-24T10:40:34;101337.06;;;13.82;45.05
37832;BME280;23671;38.090;-122.570;2023-04-24T10:43:06;101335.63;;;13.78;45.33
37832;BME280;23671;38.090;-122.570;2023-04-24T10:45:40;101328.75;;;13.76;44.91
37832;BME280;23671;38.090;-122.570;2023-04-24T10:48:10;101334.06;;;13.76;45.29
37832;BME280;23671;38.090;-122.570;2023-04-24T10:50:44;101348.44;;;13.73;44.95
37832;BME280;23671;38.090;-122.570;2023-04-24T10:53:19;101343.38;;;13.70;45.30
37832;BME280;23671;38.090;-122.570;2023-04-24T10:55:52;101344.47;;;13.67;45.02
37832;BME280;23671;38.090;-122.570;2023-04-24T10:58:24;101347.25;;;13.66;45.04
37832;BME280;23671;38.090;-122.570;2023-04-24T11:00:59;101346.53;;;13.64;45.63
37832;BME280;23671;38.090;-122.570;2023-04-24T11:03:31;101348.59;;;13.60;45.05
37832;BME280;23671;38.090;-122.570;2023-04-24T11:06:08;101354.16;;;13.57;45.22
37832;BME280;23671;38.090;-122.570;2023-04-24T11:08:46;101356.34;;;13.52;45.19
37832;BME280;23671;38.090;-122.570;2023-04-24T11:11:19;101357.41;;;13.50;45.55
37832;BME280;23671;38.090;-122.570;2023-04-24T11:16:29;101351.78;;;13.43;45.71
37832;BME280;23671;38.090;-122.570;2023-04-24T11:24:31;101341.41;;;13.40;45.69
37832;BME280;23671;38.090;-122.570;2023-04-24T11:29:41;101330.34;;;13.35;45.64
37832;BME280;23671;38.090;-122.570;2023-04-24T11:32:17;101341.91;;;13.34;45.16
37832;BME280;23671;38.090;-122.570;2023-04-24T11:34:50;101343.97;;;13.31;45.55
37832;BME280;23671;38.090;-122.570;2023-04-24T11:37:18;101335.28;;;13.29;45.68
37832;BME280;23671;38.090;-122.570;2023-04-24T11:39:45;101337.00;;;13.30;45.80
37832;BME280;23671;38.090;-122.570;2023-04-24T11:42:15;101346.28;;;13.24;45.43
37832;BME280;23671;38.090;-122.570;2023-04-24T11:44:43;101342.91;;;13.22;45.50
37832;BME280;23671;38.090;-122.570;2023-04-24T11:47:10;101341.22;;;13.21;45.80
37832;BME280;23671;38.090;-122.570;2023-04-24T11:49:40;101348.69;;;13.16;45.49
37832;BME280;23671;38.090;-122.570;2023-04-24T11:52:07;101345.56;;;13.11;45.83
37832;BME280;23671;38.090;-122.570;2023-04-24T11:54:34;101341.09;;;13.12;45.27
37832;BME280;23671;38.090;-122.570;2023-04-24T11:57:05;101348.59;;;13.07;45.50
37832;BME280;23671;38.090;-122.570;2023-04-24T11:59:39;101344.38;;;13.04;45.42
37832;BME280;23671;38.090;-122.570;2023-04-24T12:02:06;101346.06;;;13.05;45.20
37832;BME280;23671;38.090;-122.570;2023-04-24T12:04:39;101350.53;;;13.05;45.97
37832;BME280;23671;38.090;-122.570;2023-04-24T12:07:07;101361.25;;;13.03;45.64
37832;BME280;23671;38.090;-122.570;2023-04-24T12:09:46;101359.16;;;12.96;45.73
37832;BME280;23671;38.090;-122.570;2023-04-24T12:12:17;101350.38;;;12.95;45.55
37832;BME280;23671;38.090;-122.570;2023-04-24T12:14:57;101359.03;;;12.97;45.72
37832;BME280;23671;38.090;-122.570;2023-04-24T12:17:29;101347.94;;;12.92;46.11
37832;BME280;23671;38.090;-122.570;2023-04-24T12:20:05;101357.72;;;12.92;46.14
37832;BME280;23671;38.090;-122.570;2023-04-24T12:22:50;101356.75;;;12.93;46.22
37832;BME280;23671;38.090;-122.570;2023-04-24T12:25:21;101348.06;;;12.91;45.62
37832;BME280;23671;38.090;-122.570;2023-04-24T12:30:32;101349.88;;;12.90;46.21
37832;BME280;23671;38.090;-122.570;2023-04-24T12:33:00;101345.53;;;12.89;46.09
37832;BME280;23671;38.090;-122.570;2023-04-24T12:35:29;101341.19;;;12.88;45.47
37832;BME280;23671;38.090;-122.570;2023-04-24T12:40:35;101355.31;;;12.89;45.68
37832;BME280;23671;38.090;-122.570;2023-04-24T12:43:02;101350.38;;;12.84;45.81